Lincoln Heights, Pennsylvania
Current Conditions -  °F | °C
As of 10:54 PM on Sunday 23 Nov 2014 (Local Time) from KRDG Reporting Station
Overcast Overcast  
Wind Chill: 52°   Ceiling: 3700
Heat Index: 52°   Visibility: 10mi
Dew Point: 44°   Wind: 10mph
Humidity: 74%   Direction: 150°SSE
Pressure: 29.93"   Gusts: NA
Location:  40.2313°N, 75.8555°W
Report Text: KRDG 240354Z AUTO 15009KT 10SM OVC037 11/07 A2993 RMK AO2 RAB29E53 SLP143 P0000 T01110067
Loading
Personal Weather Stations






























Interactive Weather Map New forecast layout! Learn more

10-Day Weather Forecast

Advertisements
Track Severe Weather on mobile